createdAt,value
2022-12-16T05:39:17.327Z,133.77
2022-12-16T05:42:08.289Z,118.15
2022-12-16T05:44:59.544Z,165.38
2022-12-16T05:47:50.218Z,132.60
2022-12-16T05:50:40.882Z,124.40
2022-12-16T05:53:34.750Z,113.40
2022-12-16T05:56:26.047Z,116.82
2022-12-16T05:59:16.951Z,116.93
2022-12-16T06:02:07.922Z,122.82
2022-12-16T06:04:58.664Z,129.23
2022-12-16T06:07:49.933Z,127.55
2022-12-16T06:10:41.007Z,114.20
2022-12-16T06:13:32.394Z,103.97
2022-12-16T06:16:24.348Z,111.30
2022-12-16T06:19:15.182Z,100.45
2022-12-16T06:22:06.415Z,106.28
2022-12-16T06:24:56.889Z,95.97
2022-12-16T06:27:47.508Z,93.20
2022-12-16T06:30:38.271Z,99.72
2022-12-16T06:33:29.244Z,97.05
2022-12-16T06:36:19.970Z,96.55
2022-12-16T06:39:10.820Z,99.90
2022-12-16T06:42:01.865Z,95.93
2022-12-16T06:44:52.951Z,107.53
2022-12-16T06:47:43.878Z,101.35
2022-12-16T06:50:34.756Z,106.53
2022-12-16T06:53:25.515Z,108.38
2022-12-16T06:56:16.935Z,99.93
2022-12-16T06:59:08.087Z,106.95
2022-12-16T07:01:58.913Z,102.43
2022-12-16T07:04:49.580Z,105.18
2022-12-16T07:07:40.196Z,112.68
2022-12-16T07:10:31.578Z,101.03
2022-12-16T07:13:22.348Z,103.13
2022-12-16T07:16:12.999Z,101.25
2022-12-16T07:19:03.924Z,111.75
2022-12-16T07:21:55.147Z,118.18
2022-12-16T07:24:46.160Z,128.07
2022-12-16T07:27:37.127Z,122.82
2022-12-16T07:30:28.367Z,128.40
2022-12-16T07:33:19.326Z,138.68
2022-12-16T07:36:10.035Z,131.93
2022-12-16T07:39:00.697Z,117.20
2022-12-16T07:41:51.724Z,127.38
2022-12-16T07:44:43.733Z,131.70
2022-12-16T07:47:34.527Z,123.57
2022-12-16T07:50:26.533Z,138.73
2022-12-16T07:53:18.778Z,124.90
2022-12-16T07:56:10.379Z,132.52
2022-12-16T07:59:01.853Z,121.15
2022-12-16T08:01:52.873Z,115.72
2022-12-16T08:04:46.223Z,121.32
2022-12-16T08:07:37.322Z,127.38
2022-12-16T08:10:28.344Z,127.95
2022-12-16T08:13:25.841Z,119.80
2022-12-16T08:16:17.295Z,130.38
2022-12-16T08:19:11.252Z,132.77
2022-12-16T08:22:02.247Z,125.15
2022-12-16T08:24:53.799Z,126.25
2022-12-16T08:30:37.839Z,122.60
2022-12-16T08:33:28.908Z,122.18
2022-12-16T08:36:20.188Z,128.18
2022-12-16T08:39:11.445Z,119.57
2022-12-16T08:42:02.003Z,119.70
2022-12-16T08:44:53.044Z,123.68
2022-12-16T08:47:44.056Z,125.88
2022-12-16T08:50:34.652Z,124.30
2022-12-16T08:53:25.254Z,127.53
2022-12-16T08:56:16.388Z,128.30
2022-12-16T08:59:07.060Z,132.48
2022-12-16T09:01:57.680Z,121.20
2022-12-16T09:04:48.858Z,115.38
2022-12-16T09:07:39.960Z,120.32
2022-12-16T09:10:32.280Z,114.70
2022-12-16T09:13:29.360Z,123.13
2022-12-16T14:12:37.786Z,146.15
2022-12-16T14:15:43.018Z,122.63
2022-12-16T14:19:09.216Z,118.18
2022-12-16T14:22:14.078Z,118.72
2022-12-16T14:25:04.687Z,119.00
2022-12-16T14:27:55.875Z,106.82
2022-12-16T14:30:48.304Z,98.57
2022-12-16T14:33:44.809Z,103.40
2022-12-16T14:36:47.737Z,94.78
2022-12-16T14:39:47.898Z,97.85
2022-12-16T14:42:43.533Z,96.60
2022-12-16T14:45:39.995Z,104.38
2022-12-16T14:48:54.985Z,104.50
2022-12-16T14:51:55.482Z,100.72
2022-12-16T14:54:56.153Z,89.10
2022-12-16T14:57:49.602Z,102.40
2022-12-16T15:00:43.015Z,102.07
2022-12-16T15:03:54.297Z,101.32
2022-12-16T15:07:06.901Z,100.70
2022-12-16T15:10:03.114Z,110.22
2022-12-16T15:13:00.196Z,106.10
2022-12-16T15:16:07.699Z,105.35
2022-12-16T15:19:02.843Z,108.15
2022-12-16T15:21:54.519Z,101.32
2022-12-16T15:24:51.723Z,102.50
2022-12-16T15:27:52.408Z,92.97
2022-12-16T15:30:59.413Z,116.25
2022-12-16T15:33:53.002Z,105.40
2022-12-16T15:36:52.737Z,100.07
2022-12-16T15:39:50.189Z,100.05
2022-12-16T15:42:45.606Z,100.82
2022-12-16T15:45:44.773Z,100.68
2022-12-16T15:48:48.888Z,93.70
2022-12-16T15:54:43.064Z,98.45
2022-12-16T15:57:51.012Z,93.25
2022-12-16T16:00:50.904Z,91.57
2022-12-16T16:03:50.946Z,96.65
2022-12-16T16:06:44.361Z,87.45
2022-12-16T16:09:44.643Z,88.60
2022-12-16T16:12:38.476Z,96.93
2022-12-16T16:15:32.275Z,91.18
2022-12-16T16:18:24.731Z,97.88
2022-12-16T16:21:15.340Z,88.60
2022-12-16T16:24:06.056Z,98.05
2022-12-16T16:26:56.858Z,102.13
2022-12-16T16:29:47.417Z,86.45
2022-12-16T16:32:38.137Z,86.15
2022-12-16T16:35:28.637Z,87.45
2022-12-16T16:38:19.139Z,87.90
2022-12-16T16:41:09.706Z,89.50
2022-12-16T16:44:01.156Z,92.47
2022-12-16T16:47:01.009Z,81.70
2022-12-16T16:49:56.930Z,80.13
2022-12-16T16:52:47.655Z,89.57
2022-12-16T16:55:41.200Z,76.47
2022-12-16T16:58:38.198Z,89.57
2022-12-16T17:01:34.647Z,89.18
2022-12-16T17:04:25.701Z,93.53
2022-12-16T17:07:16.733Z,83.90
2022-12-16T17:10:07.770Z,92.70
2022-12-16T17:13:04.404Z,90.05
2022-12-16T17:15:56.404Z,84.30
2022-12-16T17:18:52.176Z,95.35
2022-12-16T17:21:43.203Z,85.85
2022-12-16T17:24:34.792Z,97.32
2022-12-16T17:27:34.021Z,87.80
2022-12-16T17:30:47.861Z,85.38
2022-12-16T17:33:38.907Z,87.38
2022-12-16T17:36:34.497Z,95.85
2022-12-16T17:39:25.764Z,90.93
2022-12-16T17:42:16.944Z,96.38
2022-12-16T17:45:07.760Z,95.35
2022-12-16T17:47:58.723Z,97.93
2022-12-16T17:50:49.514Z,100.45
2022-12-16T17:53:40.366Z,100.10
2022-12-16T17:56:31.117Z,96.95
2022-12-16T17:59:21.922Z,94.03
2022-12-16T18:02:13.236Z,84.85
2022-12-16T18:05:04.075Z,104.20
2022-12-16T18:07:54.557Z,89.20
2022-12-16T18:10:45.059Z,98.38
2022-12-16T18:13:36.075Z,92.22
2022-12-16T18:16:28.679Z,94.77
2022-12-16T18:19:19.931Z,98.63
2022-12-16T18:22:10.820Z,94.93
2022-12-16T18:25:02.148Z,87.43
2022-12-16T18:27:54.443Z,91.40
2022-12-16T18:30:45.292Z,93.13
2022-12-16T18:33:36.631Z,102.28
2022-12-16T18:36:27.953Z,93.53
2022-12-16T18:39:18.921Z,100.43
2022-12-16T18:42:09.598Z,104.72
2022-12-16T18:45:01.569Z,102.10
2022-12-16T18:47:53.280Z,104.10
2022-12-16T18:50:44.239Z,115.65
2022-12-16T18:53:35.136Z,121.38
2022-12-16T18:56:27.572Z,114.00
2022-12-16T18:59:18.684Z,119.47
2022-12-16T19:02:09.393Z,121.32
2022-12-16T19:05:20.179Z,110.75
2022-12-16T19:08:14.446Z,125.47
2022-12-16T19:13:56.375Z,117.35
2022-12-16T19:16:47.269Z,123.10
2022-12-16T19:19:38.631Z,125.18
2022-12-16T19:22:29.757Z,105.45
2022-12-16T19:25:20.503Z,109.38
2022-12-16T19:28:11.584Z,104.03
2022-12-16T19:31:02.341Z,111.18
2022-12-16T19:33:53.816Z,114.28
2022-12-16T19:36:47.745Z,98.80
2022-12-16T19:39:39.039Z,105.57
2022-12-16T19:42:31.407Z,94.00
2022-12-16T19:45:22.321Z,84.82
2022-12-16T19:48:23.772Z,97.13
2022-12-16T19:51:18.909Z,98.03
2022-12-16T19:54:09.785Z,103.97
2022-12-16T19:57:00.680Z,117.45
2022-12-16T19:59:51.770Z,105.00
2022-12-16T20:02:42.843Z,99.20
2022-12-16T20:05:33.982Z,109.88
2022-12-16T20:08:24.770Z,104.40
2022-12-16T20:11:15.965Z,104.38
2022-12-16T20:14:06.671Z,112.57
2022-12-16T20:16:59.241Z,106.10
2022-12-16T20:19:49.887Z,114.82
2022-12-16T20:22:41.415Z,103.00
2022-12-16T20:25:32.359Z,99.97
2022-12-16T20:28:25.144Z,96.82
2022-12-16T20:31:20.680Z,107.72
2022-12-16T20:34:12.982Z,107.82
2022-12-16T20:37:05.578Z,102.72
2022-12-16T20:39:57.166Z,111.35
2022-12-16T20:42:48.233Z,104.82
2022-12-16T20:45:39.172Z,119.43
2022-12-16T20:48:35.847Z,117.75
